Terminal Aerodrome Forecast
Issued by NWS

Home | Current Version | Previous Version | Text Only | Print | Product List | Glossary On
Versions: 1 2 3 4 5 6 7 8 9 10 11 12
979
FTUS43 KEAX 091720
TAFSTJ
TAF
KSTJ 091720Z 0918/1018 34015KT P6SM FEW025
     FM092200 22006KT P6SM FEW250
     FM101400 30012KT P6SM SCT250=

USA.gov is the U.S. government's official web portal to all federal, state and local government web resources and services.